Oxford, Massachusetts
Current Conditions -  °F | °C
As of 8:54 AM on Friday 24 Oct 2014 (Local Time) from KORH Reporting Station
Overcast Overcast  
Wind Chill: 37°   Ceiling: 4900
Heat Index: 44°   Visibility: 10mi
Dew Point: 42°   Wind: 15mph
Humidity: 93%   Direction: 320°NW
Pressure: 29.72"   Gusts: NA
Location:  42.12°N, 71.86°W
Report Text: KORH 241254Z 32013KT 10SM SCT008 BKN049 OVC060 07/06 A2972 RMK AO2 RAE43 SLP068 P0002 T00670056
Loading
Personal Weather Stations






























Interactive Weather Map
Tropical Storm Tracking
New forecast layout! Learn more

10-Day Weather Forecast

Advertisements
Track Severe Weather on mobile